sensor_id;sensor_type;location;lat;lon;timestamp;P1;durP1;ratioP1;P2;durP2;ratioP2
19339;SDS011;9804;52.350;6.684;2023-04-07T00:00:15;27.98;;;21.08;;
19339;SDS011;9804;52.350;6.684;2023-04-07T00:02:42;30.02;;;20.92;;
19339;SDS011;9804;52.350;6.684;2023-04-07T00:05:07;27.13;;;20.80;;
19339;SDS011;9804;52.350;6.684;2023-04-07T00:07:32;27.77;;;21.25;;
19339;SDS011;9804;52.350;6.684;2023-04-07T00:09:58;27.40;;;20.80;;
19339;SDS011;9804;52.350;6.684;2023-04-07T00:12:23;28.48;;;20.30;;
19339;SDS011;9804;52.350;6.684;2023-04-07T00:14:49;29.67;;;21.98;;
19339;SDS011;9804;52.350;6.684;2023-04-07T00:17:14;28.05;;;21.55;;
19339;SDS011;9804;52.350;6.684;2023-04-07T00:19:39;27.10;;;21.05;;
19339;SDS011;9804;52.350;6.684;2023-04-07T00:22:05;29.70;;;21.17;;
19339;SDS011;9804;52.350;6.684;2023-04-07T00:24:30;29.65;;;21.50;;
19339;SDS011;9804;52.350;6.684;2023-04-07T00:26:56;31.00;;;22.05;;
19339;SDS011;9804;52.350;6.684;2023-04-07T00:29:21;28.17;;;21.50;;
19339;SDS011;9804;52.350;6.684;2023-04-07T00:31:47;28.63;;;22.85;;
19339;SDS011;9804;52.350;6.684;2023-04-07T00:34:12;33.15;;;22.92;;
19339;SDS011;9804;52.350;6.684;2023-04-07T00:36:38;29.15;;;22.00;;
19339;SDS011;9804;52.350;6.684;2023-04-07T00:39:03;31.52;;;22.92;;
19339;SDS011;9804;52.350;6.684;2023-04-07T00:41:28;29.67;;;22.10;;
19339;SDS011;9804;52.350;6.684;2023-04-07T00:43:54;32.33;;;23.20;;
19339;SDS011;9804;52.350;6.684;2023-04-07T00:46:20;32.00;;;23.00;;
19339;SDS011;9804;52.350;6.684;2023-04-07T00:48:47;30.42;;;22.15;;
19339;SDS011;9804;52.350;6.684;2023-04-07T00:51:12;32.90;;;22.85;;
19339;SDS011;9804;52.350;6.684;2023-04-07T00:53:38;32.22;;;23.15;;
19339;SDS011;9804;52.350;6.684;2023-04-07T00:56:04;32.55;;;24.08;;
19339;SDS011;9804;52.350;6.684;2023-04-07T00:58:30;33.30;;;23.80;;
19339;SDS011;9804;52.350;6.684;2023-04-07T01:00:58;32.75;;;23.35;;
19339;SDS011;9804;52.350;6.684;2023-04-07T01:03:32;29.02;;;21.90;;
19339;SDS011;9804;52.350;6.684;2023-04-07T01:06:04;35.78;;;24.92;;
19339;SDS011;9804;52.350;6.684;2023-04-07T01:11:19;35.28;;;23.58;;
19339;SDS011;9804;52.350;6.684;2023-04-07T01:13:50;36.25;;;24.20;;
19339;SDS011;9804;52.350;6.684;2023-04-07T01:16:18;36.00;;;24.08;;
19339;SDS011;9804;52.350;6.684;2023-04-07T01:18:50;35.65;;;24.52;;
19339;SDS011;9804;52.350;6.684;2023-04-07T01:21:18;37.70;;;25.45;;
19339;SDS011;9804;52.350;6.684;2023-04-07T01:23:51;35.58;;;24.83;;
19339;SDS011;9804;52.350;6.684;2023-04-07T01:26:43;34.13;;;24.02;;
19339;SDS011;9804;52.350;6.684;2023-04-07T01:32:01;35.72;;;24.95;;
19339;SDS011;9804;52.350;6.684;2023-04-07T01:34:30;39.22;;;26.13;;
19339;SDS011;9804;52.350;6.684;2023-04-07T01:36:57;37.45;;;25.98;;
19339;SDS011;9804;52.350;6.684;2023-04-07T01:39:25;37.10;;;24.42;;
19339;SDS011;9804;52.350;6.684;2023-04-07T01:41:51;39.17;;;25.92;;
19339;SDS011;9804;52.350;6.684;2023-04-07T01:44:18;34.03;;;23.30;;
19339;SDS011;9804;52.350;6.684;2023-04-07T01:46:45;33.42;;;24.30;;
19339;SDS011;9804;52.350;6.684;2023-04-07T01:49:11;38.25;;;24.88;;
19339;SDS011;9804;52.350;6.684;2023-04-07T01:51:37;37.13;;;25.42;;
19339;SDS011;9804;52.350;6.684;2023-04-07T01:54:04;40.25;;;26.63;;
19339;SDS011;9804;52.350;6.684;2023-04-07T01:56:31;44.47;;;26.55;;
19339;SDS011;9804;52.350;6.684;2023-04-07T01:58:56;38.85;;;26.20;;
19339;SDS011;9804;52.350;6.684;2023-04-07T02:01:21;39.83;;;26.45;;
19339;SDS011;9804;52.350;6.684;2023-04-07T02:03:55;40.10;;;27.13;;
19339;SDS011;9804;52.350;6.684;2023-04-07T02:06:32;39.97;;;27.48;;
19339;SDS011;9804;52.350;6.684;2023-04-07T02:09:03;38.90;;;25.40;;
19339;SDS011;9804;52.350;6.684;2023-04-07T02:11:32;38.88;;;26.15;;
19339;SDS011;9804;52.350;6.684;2023-04-07T02:14:00;39.10;;;26.27;;
19339;SDS011;9804;52.350;6.684;2023-04-07T02:16:28;41.88;;;27.27;;
19339;SDS011;9804;52.350;6.684;2023-04-07T02:18:55;40.05;;;26.50;;
19339;SDS011;9804;52.350;6.684;2023-04-07T02:21:21;44.78;;;27.83;;
19339;SDS011;9804;52.350;6.684;2023-04-07T02:23:48;44.08;;;27.55;;
19339;SDS011;9804;52.350;6.684;2023-04-07T02:26:13;46.53;;;27.65;;
19339;SDS011;9804;52.350;6.684;2023-04-07T02:28:39;40.65;;;27.30;;
19339;SDS011;9804;52.350;6.684;2023-04-07T02:31:04;45.67;;;28.55;;
19339;SDS011;9804;52.350;6.684;2023-04-07T02:33:30;42.92;;;27.63;;
19339;SDS011;9804;52.350;6.684;2023-04-07T02:35:55;44.60;;;27.48;;
19339;SDS011;9804;52.350;6.684;2023-04-07T02:38:20;43.28;;;27.75;;
19339;SDS011;9804;52.350;6.684;2023-04-07T02:40:46;44.95;;;27.60;;
19339;SDS011;9804;52.350;6.684;2023-04-07T02:43:11;39.70;;;26.75;;
19339;SDS011;9804;52.350;6.684;2023-04-07T02:45:36;41.35;;;26.70;;
19339;SDS011;9804;52.350;6.684;2023-04-07T02:48:02;44.17;;;27.23;;
19339;SDS011;9804;52.350;6.684;2023-04-07T02:50:27;43.70;;;27.50;;
19339;SDS011;9804;52.350;6.684;2023-04-07T02:52:53;46.45;;;26.83;;
19339;SDS011;9804;52.350;6.684;2023-04-07T02:55:18;46.42;;;27.77;;
19339;SDS011;9804;52.350;6.684;2023-04-07T02:57:43;41.72;;;27.17;;
19339;SDS011;9804;52.350;6.684;2023-04-07T03:00:09;47.42;;;27.88;;
19339;SDS011;9804;52.350;6.684;2023-04-07T03:02:35;43.42;;;26.80;;
19339;SDS011;9804;52.350;6.684;2023-04-07T03:05:00;47.25;;;28.42;;
19339;SDS011;9804;52.350;6.684;2023-04-07T03:07:28;45.28;;;27.80;;
19339;SDS011;9804;52.350;6.684;2023-04-07T03:09:55;43.45;;;27.95;;
19339;SDS011;9804;52.350;6.684;2023-04-07T03:12:21;48.65;;;29.23;;
19339;SDS011;9804;52.350;6.684;2023-04-07T03:14:46;45.53;;;28.25;;
19339;SDS011;9804;52.350;6.684;2023-04-07T03:17:11;46.58;;;28.25;;
19339;SDS011;9804;52.350;6.684;2023-04-07T03:19:37;46.05;;;28.38;;
19339;SDS011;9804;52.350;6.684;2023-04-07T03:22:02;47.45;;;29.77;;
19339;SDS011;9804;52.350;6.684;2023-04-07T03:24:28;46.00;;;29.08;;
19339;SDS011;9804;52.350;6.684;2023-04-07T03:26:53;42.58;;;27.98;;
19339;SDS011;9804;52.350;6.684;2023-04-07T03:29:18;44.80;;;28.45;;
19339;SDS011;9804;52.350;6.684;2023-04-07T03:31:44;45.65;;;29.48;;
19339;SDS011;9804;52.350;6.684;2023-04-07T03:34:09;43.85;;;28.25;;
19339;SDS011;9804;52.350;6.684;2023-04-07T03:36:35;47.08;;;28.45;;
19339;SDS011;9804;52.350;6.684;2023-04-07T03:39:00;41.78;;;27.48;;
19339;SDS011;9804;52.350;6.684;2023-04-07T03:41:25;40.33;;;26.65;;
19339;SDS011;9804;52.350;6.684;2023-04-07T03:43:51;42.33;;;28.10;;
19339;SDS011;9804;52.350;6.684;2023-04-07T03:46:17;46.47;;;27.80;;
19339;SDS011;9804;52.350;6.684;2023-04-07T03:48:44;40.38;;;27.55;;
19339;SDS011;9804;52.350;6.684;2023-04-07T03:51:10;42.95;;;26.60;;
19339;SDS011;9804;52.350;6.684;2023-04-07T03:53:36;40.80;;;26.05;;
19339;SDS011;9804;52.350;6.684;2023-04-07T03:56:01;40.90;;;26.27;;
19339;SDS011;9804;52.350;6.684;2023-04-07T03:58:27;37.47;;;26.20;;
19339;SDS011;9804;52.350;6.684;2023-04-07T04:00:52;41.80;;;27.60;;
19339;SDS011;9804;52.350;6.684;2023-04-07T04:03:17;42.47;;;27.70;;
19339;SDS011;9804;52.350;6.684;2023-04-07T04:05:43;45.40;;;26.70;;
19339;SDS011;9804;52.350;6.684;2023-04-07T04:08:08;39.90;;;26.23;;
19339;SDS011;9804;52.350;6.684;2023-04-07T04:10:33;44.47;;;27.13;;
19339;SDS011;9804;52.350;6.684;2023-04-07T04:12:59;38.63;;;26.15;;
19339;SDS011;9804;52.350;6.684;2023-04-07T04:15:25;37.05;;;25.55;;
19339;SDS011;9804;52.350;6.684;2023-04-07T04:17:50;41.05;;;27.23;;
19339;SDS011;9804;52.350;6.684;2023-04-07T04:20:16;38.97;;;26.05;;
19339;SDS011;9804;52.350;6.684;2023-04-07T04:22:41;38.70;;;26.42;;
19339;SDS011;9804;52.350;6.684;2023-04-07T04:25:07;37.88;;;26.20;;
19339;SDS011;9804;52.350;6.684;2023-04-07T04:27:32;41.67;;;25.73;;
19339;SDS011;9804;52.350;6.684;2023-04-07T04:29:58;38.80;;;24.73;;
19339;SDS011;9804;52.350;6.684;2023-04-07T04:32:23;39.97;;;25.40;;
19339;SDS011;9804;52.350;6.684;2023-04-07T04:34:49;33.97;;;23.38;;
19339;SDS011;9804;52.350;6.684;2023-04-07T04:37:15;40.85;;;24.20;;
19339;SDS011;9804;52.350;6.684;2023-04-07T04:39:40;38.25;;;24.98;;
19339;SDS011;9804;52.350;6.684;2023-04-07T04:42:06;36.65;;;24.85;;
19339;SDS011;9804;52.350;6.684;2023-04-07T04:44:31;35.40;;;23.52;;
19339;SDS011;9804;52.350;6.684;2023-04-07T04:46:57;33.67;;;23.10;;
19339;SDS011;9804;52.350;6.684;2023-04-07T04:49:22;35.53;;;23.73;;
19339;SDS011;9804;52.350;6.684;2023-04-07T04:51:47;33.78;;;22.58;;
19339;SDS011;9804;52.350;6.684;2023-04-07T04:54:13;33.20;;;22.52;;
19339;SDS011;9804;52.350;6.684;2023-04-07T04:56:38;35.53;;;23.10;;
19339;SDS011;9804;52.350;6.684;2023-04-07T04:59:04;32.78;;;23.02;;
19339;SDS011;9804;52.350;6.684;2023-04-07T05:01:29;32.17;;;22.63;;
19339;SDS011;9804;52.350;6.684;2023-04-07T05:03:55;32.53;;;23.52;;
19339;SDS011;9804;52.350;6.684;2023-04-07T05:06:21;33.10;;;22.50;;
19339;SDS011;9804;52.350;6.684;2023-04-07T05:08:46;32.17;;;22.33;;
19339;SDS011;9804;52.350;6.684;2023-04-07T05:11:12;32.85;;;22.58;;
19339;SDS011;9804;52.350;6.684;2023-04-07T05:13:37;30.75;;;22.20;;
19339;SDS011;9804;52.350;6.684;2023-04-07T05:16:03;33.17;;;23.27;;
19339;SDS011;9804;52.350;6.684;2023-04-07T05:18:29;32.97;;;22.52;;
19339;SDS011;9804;52.350;6.684;2023-04-07T05:20:54;35.97;;;23.50;;
19339;SDS011;9804;52.350;6.684;2023-04-07T05:23:20;31.38;;;21.48;;
19339;SDS011;9804;52.350;6.684;2023-04-07T05:25:45;29.92;;;21.30;;
19339;SDS011;9804;52.350;6.684;2023-04-07T05:28:11;29.67;;;21.25;;
19339;SDS011;9804;52.350;6.684;2023-04-07T05:30:36;32.45;;;20.80;;
19339;SDS011;9804;52.350;6.684;2023-04-07T05:33:02;30.63;;;20.88;;
19339;SDS011;9804;52.350;6.684;2023-04-07T05:35:27;30.55;;;21.00;;
19339;SDS011;9804;52.350;6.684;2023-04-07T05:37:52;30.90;;;20.80;;
19339;SDS011;9804;52.350;6.684;2023-04-07T05:40:18;30.85;;;19.63;;
19339;SDS011;9804;52.350;6.684;2023-04-07T05:42:44;29.92;;;20.65;;
19339;SDS011;9804;52.350;6.684;2023-04-07T05:45:09;29.52;;;20.58;;
19339;SDS011;9804;52.350;6.684;2023-04-07T05:47:35;27.35;;;20.27;;
19339;SDS011;9804;52.350;6.684;2023-04-07T05:50:00;28.75;;;20.98;;
19339;SDS011;9804;52.350;6.684;2023-04-07T05:52:26;28.02;;;20.48;;
19339;SDS011;9804;52.350;6.684;2023-04-07T05:54:51;32.30;;;22.23;;
19339;SDS011;9804;52.350;6.684;2023-04-07T05:57:17;27.67;;;21.13;;
19339;SDS011;9804;52.350;6.684;2023-04-07T05:59:42;28.33;;;20.80;;
19339;SDS011;9804;52.350;6.684;2023-04-07T06:02:07;28.98;;;21.20;;
19339;SDS011;9804;52.350;6.684;2023-04-07T06:04:33;28.67;;;20.45;;
19339;SDS011;9804;52.350;6.684;2023-04-07T06:06:59;28.85;;;20.85;;
19339;SDS011;9804;52.350;6.684;2023-04-07T06:09:25;25.77;;;19.50;;
19339;SDS011;9804;52.350;6.684;2023-04-07T06:11:51;27.38;;;19.58;;
19339;SDS011;9804;52.350;6.684;2023-04-07T06:14:16;26.05;;;19.15;;
19339;SDS011;9804;52.350;6.684;2023-04-07T06:16:42;25.85;;;19.05;;
19339;SDS011;9804;52.350;6.684;2023-04-07T06:19:07;25.23;;;18.52;;
19339;SDS011;9804;52.350;6.684;2023-04-07T06:21:33;26.27;;;18.95;;
19339;SDS011;9804;52.350;6.684;2023-04-07T06:23:58;26.90;;;18.63;;
19339;SDS011;9804;52.350;6.684;2023-04-07T06:26:24;23.45;;;18.38;;
19339;SDS011;9804;52.350;6.684;2023-04-07T06:28:50;24.40;;;18.70;;
19339;SDS011;9804;52.350;6.684;2023-04-07T06:31:16;25.05;;;18.48;;
19339;SDS011;9804;52.350;6.684;2023-04-07T06:33:42;22.73;;;17.50;;
19339;SDS011;9804;52.350;6.684;2023-04-07T06:36:08;21.15;;;17.00;;
19339;SDS011;9804;52.350;6.684;2023-04-07T06:38:34;22.08;;;16.67;;
19339;SDS011;9804;52.350;6.684;2023-04-07T06:41:00;22.70;;;16.88;;
19339;SDS011;9804;52.350;6.684;2023-04-07T06:43:25;19.50;;;15.63;;
19339;SDS011;9804;52.350;6.684;2023-04-07T06:45:51;22.63;;;16.27;;
19339;SDS011;9804;52.350;6.684;2023-04-07T06:48:16;19.40;;;15.63;;
19339;SDS011;9804;52.350;6.684;2023-04-07T06:50:44;21.15;;;15.13;;
19339;SDS011;9804;52.350;6.684;2023-04-07T06:53:11;19.27;;;14.93;;
19339;SDS011;9804;52.350;6.684;2023-04-07T06:55:36;19.95;;;14.15;;
19339;SDS011;9804;52.350;6.684;2023-04-07T06:58:01;19.23;;;14.60;;
19339;SDS011;9804;52.350;6.684;2023-04-07T07:00:27;19.95;;;15.50;;
19339;SDS011;9804;52.350;6.684;2023-04-07T07:02:54;17.45;;;13.40;;
19339;SDS011;9804;52.350;6.684;2023-04-07T07:05:20;18.50;;;14.30;;
19339;SDS011;9804;52.350;6.684;2023-04-07T07:07:47;17.02;;;13.57;;
19339;SDS011;9804;52.350;6.684;2023-04-07T07:10:13;17.83;;;13.43;;
19339;SDS011;9804;52.350;6.684;2023-04-07T07:12:38;17.25;;;13.60;;
19339;SDS011;9804;52.350;6.684;2023-04-07T07:15:04;17.08;;;12.55;;
19339;SDS011;9804;52.350;6.684;2023-04-07T07:17:30;17.95;;;14.38;;
19339;SDS011;9804;52.350;6.684;2023-04-07T07:19:55;18.92;;;14.05;;
19339;SDS011;9804;52.350;6.684;2023-04-07T07:22:21;17.80;;;13.68;;
19339;SDS011;9804;52.350;6.684;2023-04-07T07:24:46;17.52;;;14.23;;
19339;SDS011;9804;52.350;6.684;2023-04-07T07:27:11;18.67;;;13.82;;
19339;SDS011;9804;52.350;6.684;2023-04-07T07:29:37;16.83;;;13.13;;
19339;SDS011;9804;52.350;6.684;2023-04-07T07:32:02;16.52;;;12.57;;
19339;SDS011;9804;52.350;6.684;2023-04-07T07:34:28;18.02;;;13.30;;
19339;SDS011;9804;52.350;6.684;2023-04-07T07:36:53;17.63;;;13.70;;
19339;SDS011;9804;52.350;6.684;2023-04-07T07:39:19;17.33;;;13.35;;
19339;SDS011;9804;52.350;6.684;2023-04-07T07:41:44;16.55;;;13.00;;
19339;SDS011;9804;52.350;6.684;2023-04-07T07:44:10;17.30;;;13.60;;
19339;SDS011;9804;52.350;6.684;2023-04-07T07:46:36;16.88;;;12.68;;
19339;SDS011;9804;52.350;6.684;2023-04-07T07:49:01;16.60;;;13.18;;
19339;SDS011;9804;52.350;6.684;2023-04-07T07:51:29;14.90;;;11.82;;
19339;SDS011;9804;52.350;6.684;2023-04-07T07:53:54;16.50;;;12.35;;
19339;SDS011;9804;52.350;6.684;2023-04-07T07:56:20;15.65;;;12.55;;
19339;SDS011;9804;52.350;6.684;2023-04-07T07:58:45;15.30;;;11.80;;
19339;SDS011;9804;52.350;6.684;2023-04-07T08:01:11;16.90;;;13.02;;
19339;SDS011;9804;52.350;6.684;2023-04-07T08:03:36;14.57;;;12.18;;
19339;SDS011;9804;52.350;6.684;2023-04-07T08:06:02;15.10;;;12.48;;
19339;SDS011;9804;52.350;6.684;2023-04-07T08:08:36;14.32;;;12.20;;
19339;SDS011;9804;52.350;6.684;2023-04-07T08:11:02;15.85;;;12.35;;
19339;SDS011;9804;52.350;6.684;2023-04-07T08:13:27;13.90;;;11.75;;
19339;SDS011;9804;52.350;6.684;2023-04-07T08:15:53;13.30;;;11.73;;
19339;SDS011;9804;52.350;6.684;2023-04-07T08:18:18;14.18;;;10.70;;
19339;SDS011;9804;52.350;6.684;2023-04-07T08:20:43;12.05;;;9.80;;
19339;SDS011;9804;52.350;6.684;2023-04-07T08:23:09;14.60;;;11.88;;
19339;SDS011;9804;52.350;6.684;2023-04-07T08:25:34;23.88;;;16.88;;
19339;SDS011;9804;52.350;6.684;2023-04-07T08:28:00;16.02;;;12.70;;
19339;SDS011;9804;52.350;6.684;2023-04-07T08:30:25;14.13;;;11.43;;
19339;SDS011;9804;52.350;6.684;2023-04-07T08:32:51;11.63;;;10.13;;
19339;SDS011;9804;52.350;6.684;2023-04-07T08:35:16;11.63;;;10.02;;
19339;SDS011;9804;52.350;6.684;2023-04-07T08:37:41;10.25;;;9.02;;
19339;SDS011;9804;52.350;6.684;2023-04-07T08:40:08;9.77;;;8.48;;
19339;SDS011;9804;52.350;6.684;2023-04-07T08:42:34;11.00;;;8.70;;
19339;SDS011;9804;52.350;6.684;2023-04-07T08:45:10;10.65;;;9.05;;
19339;SDS011;9804;52.350;6.684;2023-04-07T08:47:36;8.60;;;7.70;;
19339;SDS011;9804;52.350;6.684;2023-04-07T08:50:05;8.43;;;7.53;;
19339;SDS011;9804;52.350;6.684;2023-04-07T08:52:45;12.55;;;9.77;;
19339;SDS011;9804;52.350;6.684;2023-04-07T08:55:17;11.52;;;8.98;;
19339;SDS011;9804;52.350;6.684;2023-04-07T08:57:43;9.57;;;8.57;;
19339;SDS011;9804;52.350;6.684;2023-04-07T09:00:10;11.27;;;8.73;;
19339;SDS011;9804;52.350;6.684;2023-04-07T09:02:37;11.40;;;9.05;;
19339;SDS011;9804;52.350;6.684;2023-04-07T09:05:05;11.45;;;9.65;;
19339;SDS011;9804;52.350;6.684;2023-04-07T09:07:33;12.05;;;9.68;;
19339;SDS011;9804;52.350;6.684;2023-04-07T09:10:00;11.95;;;10.18;;
19339;SDS011;9804;52.350;6.684;2023-04-07T09:12:26;12.90;;;10.10;;
19339;SDS011;9804;52.350;6.684;2023-04-07T09:14:53;12.63;;;9.15;;
19339;SDS011;9804;52.350;6.684;2023-04-07T09:17:19;10.80;;;9.20;;
19339;SDS011;9804;52.350;6.684;2023-04-07T09:19:45;12.48;;;9.95;;
19339;SDS011;9804;52.350;6.684;2023-04-07T09:22:11;12.55;;;9.60;;
19339;SDS011;9804;52.350;6.684;2023-04-07T09:24:38;12.52;;;9.80;;
19339;SDS011;9804;52.350;6.684;2023-04-07T09:27:14;14.88;;;11.05;;
19339;SDS011;9804;52.350;6.684;2023-04-07T09:29:42;11.57;;;9.98;;
19339;SDS011;9804;52.350;6.684;2023-04-07T09:32:08;13.45;;;10.25;;
19339;SDS011;9804;52.350;6.684;2023-04-07T09:34:35;15.40;;;10.18;;
19339;SDS011;9804;52.350;6.684;2023-04-07T09:37:02;9.70;;;7.60;;
19339;SDS011;9804;52.350;6.684;2023-04-07T09:39:29;10.63;;;7.68;;
19339;SDS011;9804;52.350;6.684;2023-04-07T09:41:55;8.50;;;7.25;;
19339;SDS011;9804;52.350;6.684;2023-04-07T09:44:22;7.15;;;6.43;;
19339;SDS011;9804;52.350;6.684;2023-04-07T09:49:18;9.63;;;7.25;;
19339;SDS011;9804;52.350;6.684;2023-04-07T09:51:52;10.32;;;6.75;;
19339;SDS011;9804;52.350;6.684;2023-04-07T09:54:37;7.00;;;6.30;;
19339;SDS011;9804;52.350;6.684;2023-04-07T09:57:07;7.78;;;6.28;;
19339;SDS011;9804;52.350;6.684;2023-04-07T09:59:35;7.57;;;6.28;;
19339;SDS011;9804;52.350;6.684;2023-04-07T10:02:02;7.72;;;6.32;;
19339;SDS011;9804;52.350;6.684;2023-04-07T10:04:27;8.20;;;6.82;;
19339;SDS011;9804;52.350;6.684;2023-04-07T10:06:53;8.38;;;6.68;;
19339;SDS011;9804;52.350;6.684;2023-04-07T10:09:23;7.45;;;6.28;;
19339;SDS011;9804;52.350;6.684;2023-04-07T10:11:51;7.13;;;6.10;;
19339;SDS011;9804;52.350;6.684;2023-04-07T10:14:18;6.53;;;5.78;;
19339;SDS011;9804;52.350;6.684;2023-04-07T10:16:45;6.53;;;5.68;;
19339;SDS011;9804;52.350;6.684;2023-04-07T10:19:13;7.57;;;5.88;;
19339;SDS011;9804;52.350;6.684;2023-04-07T10:21:40;6.68;;;5.43;;
19339;SDS011;9804;52.350;6.684;2023-04-07T10:24:21;5.97;;;5.38;;
19339;SDS011;9804;52.350;6.684;2023-04-07T10:26:59;5.40;;;4.80;;
19339;SDS011;9804;52.350;6.684;2023-04-07T10:29:32;5.80;;;5.18;;
19339;SDS011;9804;52.350;6.684;2023-04-07T10:32:01;4.82;;;4.03;;
19339;SDS011;9804;52.350;6.684;2023-04-07T10:37:12;5.35;;;4.22;;
19339;SDS011;9804;52.350;6.684;2023-04-07T10:39:41;4.97;;;4.53;;
19339;SDS011;9804;52.350;6.684;2023-04-07T10:42:07;5.03;;;4.18;;
19339;SDS011;9804;52.350;6.684;2023-04-07T10:45:01;7.25;;;4.40;;
19339;SDS011;9804;52.350;6.684;2023-04-07T10:47:27;4.97;;;4.07;;
19339;SDS011;9804;52.350;6.684;2023-04-07T10:52:46;4.95;;;4.45;;
19339;SDS011;9804;52.350;6.684;2023-04-07T11:03:31;5.10;;;4.50;;
19339;SDS011;9804;52.350;6.684;2023-04-07T11:06:10;5.65;;;5.07;;
19339;SDS011;9804;52.350;6.684;2023-04-07T11:08:44;5.70;;;5.15;;
19339;SDS011;9804;52.350;6.684;2023-04-07T11:11:11;5.85;;;5.03;;
19339;SDS011;9804;52.350;6.684;2023-04-07T11:13:42;6.25;;;5.53;;
19339;SDS011;9804;52.350;6.684;2023-04-07T11:16:15;7.00;;;5.60;;
19339;SDS011;9804;52.350;6.684;2023-04-07T11:18:42;8.93;;;6.28;;
19339;SDS011;9804;52.350;6.684;2023-04-07T11:21:09;9.60;;;6.70;;
19339;SDS011;9804;52.350;6.684;2023-04-07T11:23:38;7.47;;;6.55;;
19339;SDS011;9804;52.350;6.684;2023-04-07T11:26:05;8.18;;;6.55;;
19339;SDS011;9804;52.350;6.684;2023-04-07T11:28:31;7.03;;;6.20;;
19339;SDS011;9804;52.350;6.684;2023-04-07T11:30:57;6.97;;;5.93;;
19339;SDS011;9804;52.350;6.684;2023-04-07T11:33:27;6.50;;;5.68;;
19339;SDS011;9804;52.350;6.684;2023-04-07T11:35:54;8.68;;;6.20;;
19339;SDS011;9804;52.350;6.684;2023-04-07T11:38:25;5.93;;;5.32;;
19339;SDS011;9804;52.350;6.684;2023-04-07T11:41:08;5.97;;;5.22;;
19339;SDS011;9804;52.350;6.684;2023-04-07T11:43:37;6.47;;;5.88;;
19339;SDS011;9804;52.350;6.684;2023-04-07T11:48:42;5.90;;;4.85;;
19339;SDS011;9804;52.350;6.684;2023-04-07T11:51:15;5.57;;;4.85;;
19339;SDS011;9804;52.350;6.684;2023-04-07T11:53:42;5.00;;;4.38;;
19339;SDS011;9804;52.350;6.684;2023-04-07T11:56:14;6.30;;;5.15;;
19339;SDS011;9804;52.350;6.684;2023-04-07T11:58:48;5.68;;;4.80;;
19339;SDS011;9804;52.350;6.684;2023-04-07T12:01:14;5.70;;;5.00;;
19339;SDS011;9804;52.350;6.684;2023-04-07T12:03:53;6.25;;;5.38;;
19339;SDS011;9804;52.350;6.684;2023-04-07T12:06:30;5.93;;;4.00;;
19339;SDS011;9804;52.350;6.684;2023-04-07T12:09:03;4.68;;;3.85;;
19339;SDS011;9804;52.350;6.684;2023-04-07T12:11:29;5.45;;;4.07;;
19339;SDS011;9804;52.350;6.684;2023-04-07T12:13:55;4.35;;;3.95;;
19339;SDS011;9804;52.350;6.684;2023-04-07T12:16:21;6.88;;;4.07;;
19339;SDS011;9804;52.350;6.684;2023-04-07T12:18:47;5.38;;;4.18;;
19339;SDS011;9804;52.350;6.684;2023-04-07T12:21:13;5.47;;;4.22;;
19339;SDS011;9804;52.350;6.684;2023-04-07T12:23:39;4.18;;;3.78;;
19339;SDS011;9804;52.350;6.684;2023-04-07T12:26:05;4.75;;;3.95;;
19339;SDS011;9804;52.350;6.684;2023-04-07T12:28:31;4.82;;;4.20;;
19339;SDS011;9804;52.350;6.684;2023-04-07T12:30:57;4.40;;;3.97;;
19339;SDS011;9804;52.350;6.684;2023-04-07T12:33:22;4.82;;;4.32;;
19339;SDS011;9804;52.350;6.684;2023-04-07T12:35:48;4.10;;;3.70;;
19339;SDS011;9804;52.350;6.684;2023-04-07T12:38:14;5.40;;;3.83;;
19339;SDS011;9804;52.350;6.684;2023-04-07T12:40:39;5.75;;;3.67;;
19339;SDS011;9804;52.350;6.684;2023-04-07T12:43:05;4.85;;;3.90;;
19339;SDS011;9804;52.350;6.684;2023-04-07T12:45:31;4.10;;;3.70;;
19339;SDS011;9804;52.350;6.684;2023-04-07T12:47:57;5.20;;;3.60;;
19339;SDS011;9804;52.350;6.684;2023-04-07T12:50:23;4.88;;;3.95;;
19339;SDS011;9804;52.350;6.684;2023-04-07T12:52:49;5.32;;;4.10;;
19339;SDS011;9804;52.350;6.684;2023-04-07T12:55:15;3.97;;;3.58;;
19339;SDS011;9804;52.350;6.684;2023-04-07T12:57:41;4.00;;;3.60;;
19339;SDS011;9804;52.350;6.684;2023-04-07T13:00:07;5.00;;;3.92;;
19339;SDS011;9804;52.350;6.684;2023-04-07T13:02:32;4.22;;;3.80;;
19339;SDS011;9804;52.350;6.684;2023-04-07T13:05:00;5.35;;;4.20;;
19339;SDS011;9804;52.350;6.684;2023-04-07T13:07:26;4.50;;;3.75;;
19339;SDS011;9804;52.350;6.684;2023-04-07T13:09:51;4.03;;;3.55;;
19339;SDS011;9804;52.350;6.684;2023-04-07T13:12:17;4.15;;;3.50;;
19339;SDS011;9804;52.350;6.684;2023-04-07T13:14:42;4.50;;;4.05;;
19339;SDS011;9804;52.350;6.684;2023-04-07T13:17:08;4.55;;;4.03;;
19339;SDS011;9804;52.350;6.684;2023-04-07T13:19:33;4.28;;;3.88;;
19339;SDS011;9804;52.350;6.684;2023-04-07T13:21:58;4.45;;;3.85;;
19339;SDS011;9804;52.350;6.684;2023-04-07T13:24:24;4.13;;;3.70;;
19339;SDS011;9804;52.350;6.684;2023-04-07T13:26:51;5.80;;;3.83;;
19339;SDS011;9804;52.350;6.684;2023-04-07T13:29:16;3.97;;;3.58;;
19339;SDS011;9804;52.350;6.684;2023-04-07T13:31:44;3.53;;;3.22;;
19339;SDS011;9804;52.350;6.684;2023-04-07T13:34:10;5.88;;;3.90;;
19339;SDS011;9804;52.350;6.684;2023-04-07T13:36:36;5.40;;;4.03;;
19339;SDS011;9804;52.350;6.684;2023-04-07T13:39:01;4.97;;;3.80;;
19339;SDS011;9804;52.350;6.684;2023-04-07T13:41:27;4.95;;;3.83;;
19339;SDS011;9804;52.350;6.684;2023-04-07T13:43:52;4.35;;;3.95;;
19339;SDS011;9804;52.350;6.684;2023-04-07T13:46:17;4.40;;;4.00;;
19339;SDS011;9804;52.350;6.684;2023-04-07T13:48:44;3.95;;;3.58;;
19339;SDS011;9804;52.350;6.684;2023-04-07T13:51:09;4.57;;;3.60;;
19339;SDS011;9804;52.350;6.684;2023-04-07T13:53:35;3.80;;;3.40;;
19339;SDS011;9804;52.350;6.684;2023-04-07T13:56:00;3.88;;;3.53;;
19339;SDS011;9804;52.350;6.684;2023-04-07T13:58:27;4.68;;;3.80;;
19339;SDS011;9804;52.350;6.684;2023-04-07T14:00:53;4.30;;;3.60;;
19339;SDS011;9804;52.350;6.684;2023-04-07T14:03:18;6.57;;;3.65;;
19339;SDS011;9804;52.350;6.684;2023-04-07T14:05:44;3.00;;;2.70;;
19339;SDS011;9804;52.350;6.684;2023-04-07T14:08:10;3.15;;;2.85;;
19339;SDS011;9804;52.350;6.684;2023-04-07T14:10:35;3.97;;;2.95;;
19339;SDS011;9804;52.350;6.684;2023-04-07T14:13:01;3.00;;;2.70;;
19339;SDS011;9804;52.350;6.684;2023-04-07T14:15:26;4.57;;;2.97;;
19339;SDS011;9804;52.350;6.684;2023-04-07T14:17:52;3.17;;;2.83;;
19339;SDS011;9804;52.350;6.684;2023-04-07T14:20:17;4.15;;;3.58;;
19339;SDS011;9804;52.350;6.684;2023-04-07T14:22:42;3.25;;;2.88;;
19339;SDS011;9804;52.350;6.684;2023-04-07T14:25:09;3.50;;;3.20;;
19339;SDS011;9804;52.350;6.684;2023-04-07T14:27:35;4.50;;;3.50;;
19339;SDS011;9804;52.350;6.684;2023-04-07T14:30:01;4.70;;;3.20;;
19339;SDS011;9804;52.350;6.684;2023-04-07T14:32:26;5.43;;;3.60;;
19339;SDS011;9804;52.350;6.684;2023-04-07T14:34:53;3.22;;;2.92;;
19339;SDS011;9804;52.350;6.684;2023-04-07T14:37:19;3.72;;;3.10;;
19339;SDS011;9804;52.350;6.684;2023-04-07T14:39:48;5.60;;;3.17;;
19339;SDS011;9804;52.350;6.684;2023-04-07T14:42:13;3.50;;;3.20;;
19339;SDS011;9804;52.350;6.684;2023-04-07T14:44:40;3.80;;;2.92;;
19339;SDS011;9804;52.350;6.684;2023-04-07T14:47:05;3.83;;;2.95;;
19339;SDS011;9804;52.350;6.684;2023-04-07T14:49:31;4.57;;;3.35;;
19339;SDS011;9804;52.350;6.684;2023-04-07T14:51:56;3.70;;;3.30;;
19339;SDS011;9804;52.350;6.684;2023-04-07T14:54:22;3.63;;;3.20;;
19339;SDS011;9804;52.350;6.684;2023-04-07T14:56:48;3.67;;;3.30;;
19339;SDS011;9804;52.350;6.684;2023-04-07T14:59:13;3.92;;;3.10;;
19339;SDS011;9804;52.350;6.684;2023-04-07T15:01:39;4.35;;;3.65;;
19339;SDS011;9804;52.350;6.684;2023-04-07T15:04:04;3.78;;;3.47;;
19339;SDS011;9804;52.350;6.684;2023-04-07T15:06:30;4.10;;;3.45;;